Time;durP1;ratioP1;P1;durP2;ratioP2;P2;SDS_P1;SDS_P2;PMS_P1;PMS_P2;Temp;Humidity;BMP_temperature;BMP_pressure;BME280_temperature;BME280_humidity;BME280_pressure;Samples;Min_cycle;Max_cycle;Signal;HPM_P1;HPM_P2
2023/10/28 00:02:14;;;;;;;;;2.00;1.00;;;;;13.70;70.63;99085.78;5044209;28;68517;-72
2023/10/28 00:04:39;;;;;;;;;2.25;1.00;;;;;13.70;70.55;99088.41;5044380;28;45332;-72
2023/10/28 00:07:05;;;;;;;;;5.00;2.00;;;;;13.67;70.47;99081.59;5044477;28;71390;-72
2023/10/28 00:09:30;;;;;;;;;3.50;1.50;;;;;13.65;69.93;99081.69;5035923;28;45438;-72
2023/10/28 00:11:55;;;;;;;;;3.50;1.00;;;;;13.63;69.94;99077.47;5052339;28;69979;-73
2023/10/28 00:14:21;;;;;;;;;2.75;1.00;;;;;13.63;70.09;99073.06;5034218;28;45431;-71
2023/10/28 00:16:49;;;;;;;;;1.75;1.75;;;;;13.69;70.28;99077.06;5067624;28;45532;-71
2023/10/28 00:19:14;;;;;;;;;6.25;2.00;;;;;13.67;70.35;99071.91;5049690;28;45343;-72
2023/10/28 00:21:40;;;;;;;;;4.50;2.00;;;;;13.70;70.42;99070.03;5054131;28;46159;-71
2023/10/28 00:24:06;;;;;;;;;4.25;2.00;;;;;13.68;70.21;99076.22;5044077;28;45461;-71
2023/10/28 00:26:31;;;;;;;;;4.75;1.00;;;;;13.68;70.30;99070.94;5067166;28;45446;-71
2023/10/28 00:28:56;;;;;;;;;3.00;1.00;;;;;13.66;69.77;99064.97;5054808;28;45403;-71
2023/10/28 00:31:22;;;;;;;;;3.50;3.00;;;;;13.64;70.16;99066.84;5050029;28;60117;-71
2023/10/28 00:33:49;;;;;;;;;4.00;1.50;;;;;13.65;70.07;99065.91;5062985;28;45313;-71
2023/10/28 00:36:15;;;;;;;;;5.00;1.75;;;;;13.64;70.12;99072.09;5047494;28;45489;-71
2023/10/28 00:38:40;;;;;;;;;4.25;1.00;;;;;13.64;70.00;99063.38;5046113;28;64146;-71
2023/10/28 00:41:06;;;;;;;;;2.25;0.75;;;;;13.64;70.14;99063.38;5049445;28;46021;-71
2023/10/28 00:43:32;;;;;;;;;5.25;2.00;;;;;13.61;70.82;99063.59;5043221;28;45194;-71
2023/10/28 00:45:59;;;;;;;;;3.00;1.50;;;;;13.60;70.76;99056.66;5049721;28;45565;-71
2023/10/28 00:48:25;;;;;;;;;3.50;1.00;;;;;13.59;70.98;99062.84;5049935;28;45761;-71
2023/10/28 00:50:50;;;;;;;;;7.25;2.00;;;;;13.57;70.69;99055.06;5066391;28;47436;-71
2023/10/28 00:53:17;;;;;;;;;1.75;1.00;;;;;13.54;71.05;99051.81;5068634;28;67658;-71
2023/10/28 00:55:42;;;;;;;;;2.75;2.75;;;;;13.53;71.59;99057.97;5044925;28;45533;-71
2023/10/28 00:58:09;;;;;;;;;1.00;1.00;;;;;13.50;71.27;99048.53;5069206;28;45484;-71
2023/10/28 01:00:35;;;;;;;;;3.50;1.00;;;;;13.47;71.42;99038.22;5059801;28;45721;-71
2023/10/28 01:03:00;;;;;;;;;0.00;0.00;;;;;13.45;71.25;99043.56;5058958;28;45310;-71
2023/10/28 01:05:26;;;;;;;;;2.75;2.00;;;;;13.47;71.73;99035.59;5033886;28;45422;-71
2023/10/28 01:07:52;;;;;;;;;1.75;1.00;;;;;13.40;71.29;99026.44;5033610;28;45585;-71
2023/10/28 01:10:25;;;;;;;;;2.75;1.00;;;;;13.44;71.15;99035.81;5052058;28;45381;-71
2023/10/28 01:12:50;;;;;;;;;1.00;1.00;;;;;13.45;71.25;99038.31;5060325;28;45994;-72
2023/10/28 01:15:16;;;;;;;;;2.50;1.75;;;;;13.48;70.94;99035.50;5030087;28;70354;-72
2023/10/28 01:17:42;;;;;;;;;3.00;1.00;;;;;13.53;71.69;99047.47;5063833;28;73140;-72
2023/10/28 01:20:10;;;;;;;;;2.00;0.00;;;;;13.52;71.17;99033.50;5060182;28;45423;-72
2023/10/28 01:22:36;;;;;;;;;4.75;1.00;;;;;13.54;71.21;99042.13;5037564;28;45412;-71
2023/10/28 01:25:01;;;;;;;;;0.00;0.00;;;;;13.56;71.34;99045.47;5058056;28;45379;-72
2023/10/28 01:27:26;;;;;;;;;4.00;1.00;;;;;13.60;71.10;99043.53;5052568;28;73810;-72
2023/10/28 01:29:51;;;;;;;;;2.75;1.00;;;;;13.61;71.37;99032.03;5067904;28;64468;-72
2023/10/28 01:32:17;;;;;;;;;6.00;0.00;;;;;13.61;71.59;99032.03;5048995;28;50623;-72
2023/10/28 01:34:51;;;;;;;;;3.00;1.50;;;;;13.59;71.36;99023.44;5049762;28;45413;-71
2023/10/28 01:37:17;;;;;;;;;1.50;1.50;;;;;13.58;71.22;99016.47;5059833;28;45739;-72
2023/10/28 01:39:48;;;;;;;;;3.00;2.00;;;;;13.57;71.41;99022.69;5046100;28;45385;-72
2023/10/28 01:42:14;;;;;;;;;2.00;0.50;;;;;13.58;71.48;99024.34;5068855;28;45838;-71
2023/10/28 01:44:40;;;;;;;;;4.50;1.25;;;;;13.58;71.81;99017.34;5034498;28;45500;-72
2023/10/28 01:47:08;;;;;;;;;2.75;1.00;;;;;13.61;71.32;99029.41;5036075;28;45439;-72
2023/10/28 01:49:36;;;;;;;;;1.00;0.75;;;;;13.60;71.91;99017.25;5059841;28;48063;-73
2023/10/28 01:52:03;;;;;;;;;2.00;1.00;;;;;13.63;71.87;99022.25;5034952;28;45401;-72
2023/10/28 01:54:30;;;;;;;;;2.00;1.25;;;;;13.59;71.93;99021.63;5064123;28;45459;-72
2023/10/28 01:57:05;;;;;;;;;3.75;1.00;;;;;13.63;71.76;99019.63;5047080;28;45482;-72
2023/10/28 01:59:32;;;;;;;;;1.50;0.00;;;;;13.65;71.57;99023.00;5056873;28;46278;-72
2023/10/28 02:02:00;;;;;;;;;2.25;0.75;;;;;13.62;71.60;99024.06;5058332;28;45470;-72
2023/10/28 02:04:25;;;;;;;;;1.75;0.25;;;;;13.59;71.68;99020.81;5037781;28;45439;-71
2023/10/28 02:06:51;;;;;;;;;3.50;1.00;;;;;13.57;71.89;99013.00;5021093;28;45654;-72
2023/10/28 02:09:17;;;;;;;;;0.00;0.00;;;;;13.61;71.81;99026.78;5030310;28;73327;-72
2023/10/28 02:11:43;;;;;;;;;2.50;1.00;;;;;13.59;71.87;99019.00;5046321;28;47167;-72
2023/10/28 02:14:09;;;;;;;;;4.25;1.00;;;;;13.59;72.10;99011.13;5035105;28;45548;-73
2023/10/28 02:16:36;;;;;;;;;6.75;0.75;;;;;13.57;71.68;99015.63;5034947;28;45599;-71
2023/10/28 02:19:02;;;;;;;;;5.00;0.00;;;;;13.58;71.68;99000.69;5047802;28;45462;-75
2023/10/28 02:21:28;;;;;;;;;1.75;0.00;;;;;13.59;71.70;99005.84;5040320;28;45495;-71
2023/10/28 02:23:53;;;;;;;;;1.75;0.75;;;;;13.58;71.75;98995.44;5024375;28;45320;-72
2023/10/28 02:26:19;;;;;;;;;1.50;0.00;;;;;13.57;71.86;99004.28;5050809;28;45388;-72
2023/10/28 02:28:44;;;;;;;;;1.00;1.00;;;;;13.53;71.69;99005.41;5044716;28;61976;-72
2023/10/28 02:31:09;;;;;;;;;2.75;1.00;;;;;13.52;72.01;98999.34;5037835;28;45475;-72
2023/10/28 02:33:35;;;;;;;;;1.50;1.00;;;;;13.47;72.18;98993.53;5041399;28;45410;-73
2023/10/28 02:36:08;;;;;;;;;1.00;1.00;;;;;13.45;71.52;98998.91;5048114;28;45553;-73
2023/10/28 02:38:34;;;;;;;;;3.50;1.50;;;;;13.48;71.53;98987.34;5040582;28;47877;-71
2023/10/28 02:40:59;;;;;;;;;1.75;0.00;;;;;13.47;71.68;98986.53;5040188;28;45248;-71
2023/10/28 02:43:25;;;;;;;;;1.00;0.00;;;;;13.48;71.62;98993.44;5021319;28;45729;-73
2023/10/28 02:45:50;;;;;;;;;2.75;0.00;;;;;13.51;71.87;98979.28;5047490;28;68042;-71
2023/10/28 02:48:15;;;;;;;;;1.25;0.75;;;;;13.54;72.08;98986.09;5044927;28;72157;-71
2023/10/28 02:50:41;;;;;;;;;3.00;0.00;;;;;13.57;71.85;98989.34;5037690;28;73210;-71
2023/10/28 02:53:06;;;;;;;;;1.00;1.00;;;;;13.58;71.86;98985.78;5035962;28;45476;-71
2023/10/28 02:55:35;;;;;;;;;3.75;0.50;;;;;13.57;71.74;98981.47;5038071;28;45308;-71
2023/10/28 02:58:00;;;;;;;;;2.00;0.25;;;;;13.60;71.65;98981.28;5040860;28;46221;-71
2023/10/28 03:00:26;;;;;;;;;2.50;1.00;;;;;13.61;71.97;98977.69;5028797;28;70937;-71
2023/10/28 03:02:52;;;;;;;;;1.00;0.00;;;;;13.62;71.55;98970.66;5040508;28;45487;-71
2023/10/28 03:05:20;;;;;;;;;5.50;1.00;;;;;13.62;71.79;98962.78;5038928;28;45412;-72
2023/10/28 03:07:45;;;;;;;;;1.00;1.00;;;;;13.63;71.71;98975.81;5057764;28;45680;-72
2023/10/28 03:10:11;;;;;;;;;1.00;1.00;;;;;13.61;71.71;98987.38;5040916;28;51905;-72
2023/10/28 03:12:37;;;;;;;;;2.25;1.00;;;;;13.58;71.86;98984.94;5058554;28;52979;-71
2023/10/28 03:15:03;;;;;;;;;5.25;0.50;;;;;13.58;71.71;98982.31;5041242;28;45415;-71
2023/10/28 03:17:28;;;;;;;;;3.50;0.00;;;;;13.53;72.02;98985.25;5065540;28;46364;-72
2023/10/28 03:19:53;;;;;;;;;0.25;0.00;;;;;13.52;72.02;98999.34;5023574;28;68201;-72
2023/10/28 03:22:19;;;;;;;;;4.75;1.00;;;;;13.52;72.00;98993.25;5024516;28;69735;-72
2023/10/28 03:24:44;;;;;;;;;4.00;2.00;;;;;13.50;71.81;99006.47;5062914;28;45371;-72
2023/10/28 03:27:09;;;;;;;;;0.75;0.75;;;;;13.51;71.71;99007.31;5059174;28;68379;-72
2023/10/28 03:29:35;;;;;;;;;2.00;0.00;;;;;13.47;71.69;98998.81;5040080;28;68404;-71
2023/10/28 03:32:00;;;;;;;;;1.75;1.00;;;;;13.47;71.54;99006.69;5023606;28;45609;-72
2023/10/28 03:34:26;;;;;;;;;2.00;0.25;;;;;13.46;71.88;99005.84;5040376;28;45481;-72
2023/10/28 03:36:51;;;;;;;;;1.00;1.00;;;;;13.43;71.49;99003.41;5044839;28;47882;-71
2023/10/28 03:39:17;;;;;;;;;2.50;1.00;;;;;13.41;71.55;98999.22;5039100;28;70069;-72
2023/10/28 03:41:45;;;;;;;;;0.50;0.25;;;;;13.40;71.81;99000.16;5041369;28;45468;-71
2023/10/28 03:44:10;;;;;;;;;3.50;1.00;;;;;13.41;71.23;99007.94;5030218;28;45682;-71
2023/10/28 03:46:36;;;;;;;;;2.50;1.00;;;;;13.41;71.45;99007.09;5071192;27;47826;-72
2023/10/28 03:49:01;;;;;;;;;1.00;0.00;;;;;13.40;71.56;98990.50;5025695;28;45309;-71
2023/10/28 03:51:27;;;;;;;;;0.50;0.50;;;;;13.42;71.32;99006.16;5040211;28;45434;-72
2023/10/28 03:53:53;;;;;;;;;1.00;1.00;;;;;13.39;71.47;99003.75;5059106;28;45469;-72
2023/10/28 03:56:18;;;;;;;;;2.00;1.00;;;;;13.44;71.66;99017.41;5041516;28;47587;-72
2023/10/28 03:58:43;;;;;;;;;0.50;0.50;;;;;13.47;71.18;99018.06;5057959;28;72081;-72
2023/10/28 04:01:10;;;;;;;;;1.00;1.00;;;;;13.51;71.31;99020.47;5045342;28;45521;-71
2023/10/28 04:03:35;;;;;;;;;2.00;1.00;;;;;13.50;71.45;99022.25;5041181;28;45718;-71
2023/10/28 04:06:00;;;;;;;;;1.00;0.25;;;;;13.52;71.13;99023.00;5039155;28;46913;-71
2023/10/28 04:08:26;;;;;;;;;1.50;0.00;;;;;13.50;70.81;99013.53;5058664;28;45331;-71
2023/10/28 04:10:51;;;;;;;;;1.25;1.00;;;;;13.57;70.85;99031.41;5057749;28;64719;-71
2023/10/28 04:13:18;;;;;;;;;2.00;0.25;;;;;13.56;70.84;99036.75;5043337;28;63755;-71
2023/10/28 04:15:45;;;;;;;;;1.00;1.00;;;;;13.51;70.99;99033.59;5045879;28;45277;-71
2023/10/28 04:18:10;;;;;;;;;0.25;0.00;;;;;13.57;70.91;99041.91;5044116;28;45502;-71
2023/10/28 04:20:37;;;;;;;;;1.00;0.00;;;;;13.55;71.02;99046.44;5027442;28;69679;-72
2023/10/28 04:23:02;;;;;;;;;4.00;0.00;;;;;13.54;71.04;99042.13;5051877;28;45410;-73
2023/10/28 04:25:28;;;;;;;;;2.00;0.00;;;;;13.54;70.95;99043.91;5042325;28;46208;-72
2023/10/28 04:27:53;;;;;;;;;0.00;0.00;;;;;13.52;70.89;99040.56;5034606;28;45328;-72
2023/10/28 04:30:19;;;;;;;;;2.50;0.50;;;;;13.54;70.49;99046.53;5045918;28;45534;-72
2023/10/28 04:32:44;;;;;;;;;3.00;0.00;;;;;13.54;70.64;99046.53;5043814;28;45453;-72
2023/10/28 04:35:12;;;;;;;;;3.00;0.00;;;;;13.57;71.00;99047.19;5024827;28;67249;-72
2023/10/28 04:37:38;;;;;;;;;2.25;0.00;;;;;13.55;70.64;99045.59;5059787;28;45857;-72
2023/10/28 04:40:05;;;;;;;;;2.50;1.00;;;;;13.58;70.70;99048.88;5061603;28;45657;-72
2023/10/28 04:42:31;;;;;;;;;0.75;0.75;;;;;13.58;70.63;99048.88;5043624;28;45471;-72
2023/10/28 04:44:56;;;;;;;;;2.00;0.00;;;;;13.59;70.41;99047.91;5050459;28;45491;-72
2023/10/28 04:47:21;;;;;;;;;1.00;0.00;;;;;13.64;70.49;99060.75;5061816;28;73071;-71
2023/10/28 04:49:46;;;;;;;;;3.00;0.00;;;;;13.66;70.84;99062.31;5042063;28;57606;-72
2023/10/28 04:52:12;;;;;;;;;0.00;0.00;;;;;13.71;70.46;99063.84;5044833;28;71841;-72
2023/10/28 04:54:40;;;;;;;;;2.25;0.25;;;;;13.71;70.44;99053.31;5043296;28;45484;-72
2023/10/28 04:57:05;;;;;;;;;3.00;1.00;;;;;13.71;70.70;99046.25;5062133;28;47112;-72
2023/10/28 04:59:31;;;;;;;;;1.00;1.00;;;;;13.67;70.38;99042.16;5043850;28;45304;-72
2023/10/28 05:01:56;;;;;;;;;2.00;0.00;;;;;13.68;70.12;99046.47;5045420;28;45534;-72
2023/10/28 05:04:25;;;;;;;;;1.75;1.00;;;;;13.65;70.34;99042.25;5025022;28;47225;-72
2023/10/28 05:06:53;;;;;;;;;0.25;0.00;;;;;13.68;70.79;99049.91;5042400;28;45367;-72
2023/10/28 05:09:23;;;;;;;;;4.00;1.00;;;;;13.67;70.67;99044.78;5026902;28;45538;-72
2023/10/28 05:11:53;;;;;;;;;2.00;1.00;;;;;13.66;70.41;99043.09;5025882;28;45649;-73
2023/10/28 05:14:20;;;;;;;;;2.00;1.00;;;;;13.66;70.58;99043.94;5058681;28;47078;-72
2023/10/28 05:16:45;;;;;;;;;1.25;0.75;;;;;13.64;70.51;99047.63;5054773;28;45356;-71
2023/10/28 05:19:11;;;;;;;;;3.75;2.75;;;;;13.64;70.52;99052.88;5049264;28;45272;-72
2023/10/28 05:21:37;;;;;;;;;1.75;0.50;;;;;13.62;70.47;99047.72;5052826;28;46955;-72
2023/10/28 05:24:03;;;;;;;;;3.00;0.25;;;;;13.61;70.73;99047.81;5050700;28;46772;-71
2023/10/28 05:26:28;;;;;;;;;0.25;0.25;;;;;13.61;70.59;99056.53;5068507;28;45268;-71
2023/10/28 05:28:54;;;;;;;;;2.50;1.00;;;;;13.62;70.71;99060.88;5075968;28;45715;-71
2023/10/28 05:31:23;;;;;;;;;4.00;0.50;;;;;13.62;70.45;99052.13;5037943;28;45528;-71
2023/10/28 05:33:48;;;;;;;;;8.25;2.25;;;;;13.64;70.09;99052.88;5057775;28;46335;-72
2023/10/28 05:36:15;;;;;;;;;3.75;1.00;;;;;13.65;70.52;99059.81;5068232;28;45537;-71
2023/10/28 05:38:41;;;;;;;;;3.25;1.00;;;;;13.65;70.90;99060.66;5047981;28;46035;-72
2023/10/28 05:41:09;;;;;;;;;1.75;1.00;;;;;13.68;70.49;99059.59;5044857;28;45848;-72
2023/10/28 05:43:34;;;;;;;;;2.75;1.00;;;;;13.70;70.76;99068.22;5029065;28;48120;-73
2023/10/28 05:45:59;;;;;;;;;0.00;0.00;;;;;13.69;70.50;99058.66;5047001;28;45352;-72
2023/10/28 05:48:24;;;;;;;;;1.50;0.25;;;;;13.71;70.39;99066.47;5028213;28;69037;-72
2023/10/28 05:50:52;;;;;;;;;2.00;0.25;;;;;13.70;70.08;99065.59;5067050;28;73271;-72
2023/10/28 05:53:17;;;;;;;;;3.00;1.00;;;;;13.69;70.20;99066.56;5043151;28;46552;-71
2023/10/28 05:55:43;;;;;;;;;1.75;0.00;;;;;13.69;70.73;99079.69;5049711;28;45444;-71
2023/10/28 05:58:08;;;;;;;;;3.75;1.00;;;;;13.67;70.43;99074.53;5049357;28;45356;-72
2023/10/28 06:00:33;;;;;;;;;2.00;0.25;;;;;13.68;70.72;99078.84;5031731;28;69431;-72
2023/10/28 06:02:59;;;;;;;;;2.00;2.00;;;;;13.70;70.61;99078.75;5045604;28;45410;-72
2023/10/28 06:05:25;;;;;;;;;3.00;0.50;;;;;13.71;70.26;99083.06;5051116;28;72340;-72
2023/10/28 06:07:50;;;;;;;;;2.00;0.50;;;;;13.70;70.48;99072.66;5042256;28;45421;-72
2023/10/28 06:10:16;;;;;;;;;1.00;1.00;;;;;13.73;70.41;99075.91;5049852;28;54821;-71
2023/10/28 06:12:41;;;;;;;;;3.25;0.50;;;;;13.75;70.42;99084.53;5036138;28;47156;-71
2023/10/28 06:15:07;;;;;;;;;2.25;1.00;;;;;13.76;70.30;99083.59;5035637;28;45351;-72
2023/10/28 06:17:32;;;;;;;;;2.25;1.00;;;;;13.74;70.09;99077.63;5046851;28;45481;-71
2023/10/28 06:20:00;;;;;;;;;3.75;1.75;;;;;13.77;70.03;99076.56;5046482;28;45625;-70
2023/10/28 06:22:25;;;;;;;;;2.50;1.00;;;;;13.79;70.41;99080.78;5058806;28;46436;-71
2023/10/28 06:24:51;;;;;;;;;1.25;0.75;;;;;13.80;70.03;99077.19;5072541;28;54088;-71
2023/10/28 06:27:16;;;;;;;;;4.75;1.00;;;;;13.80;70.01;99068.47;5072652;28;53923;-71
2023/10/28 06:29:41;;;;;;;;;0.75;0.25;;;;;13.84;70.28;99073.41;5053472;28;73227;-72
2023/10/28 06:32:07;;;;;;;;;4.50;1.00;;;;;13.86;70.35;99073.31;5045627;28;47893;-71
2023/10/28 06:34:32;;;;;;;;;6.75;0.75;;;;;13.86;69.74;99079.41;5041885;28;45225;-72
2023/10/28 06:36:58;;;;;;;;;2.00;1.00;;;;;13.89;70.00;99088.88;5059700;28;52081;-72
2023/10/28 06:39:23;;;;;;;;;2.00;1.50;;;;;13.89;70.13;99088.03;5037489;28;45792;-71
2023/10/28 06:41:48;;;;;;;;;3.00;1.00;;;;;13.86;69.91;99089.06;5049226;28;46547;-71
2023/10/28 06:44:15;;;;;;;;;1.50;0.00;;;;;13.89;69.78;99093.31;5048620;28;45441;-71
2023/10/28 06:46:40;;;;;;;;;6.75;1.00;;;;;13.87;69.87;99096.03;5045903;28;45431;-72
2023/10/28 06:49:09;;;;;;;;;4.00;1.75;;;;;13.85;70.03;99093.50;5022734;28;72119;-71
2023/10/28 06:51:34;;;;;;;;;1.00;1.00;;;;;13.89;70.10;99103.81;5042150;28;45400;-72
2023/10/28 06:53:59;;;;;;;;;3.00;1.00;;;;;13.86;69.68;99096.97;5029590;28;72109;-71
2023/10/28 06:56:25;;;;;;;;;2.75;1.00;;;;;13.88;70.01;99099.50;5050579;28;66313;-71
2023/10/28 06:58:51;;;;;;;;;0.00;0.00;;;;;13.90;69.63;99102.84;5055576;28;45664;-72
2023/10/28 07:01:18;;;;;;;;;1.50;1.00;;;;;13.87;69.57;99101.28;5050578;28;45429;-72
2023/10/28 07:03:44;;;;;;;;;3.25;1.00;;;;;13.86;69.33;99103.09;5031138;28;45974;-72
2023/10/28 07:06:14;;;;;;;;;1.00;1.00;;;;;13.85;69.69;99103.19;5050882;28;45276;-72
2023/10/28 07:08:39;;;;;;;;;4.00;1.00;;;;;13.86;69.88;99104.84;5048098;28;45260;-72
2023/10/28 07:11:05;;;;;;;;;2.25;1.00;;;;;13.85;69.88;99104.03;5040750;28;46538;-72
2023/10/28 07:13:30;;;;;;;;;2.75;0.75;;;;;13.84;70.14;99106.75;5045945;28;46444;-71
2023/10/28 07:16:03;;;;;;;;;5.25;1.75;;;;;13.85;69.91;99104.03;5042707;28;48406;-72
2023/10/28 07:18:29;;;;;;;;;1.50;1.50;;;;;13.86;70.01;99112.75;5027184;28;45386;-73
2023/10/28 07:20:55;;;;;;;;;3.25;1.25;;;;;13.91;70.07;99120.34;5068298;28;45366;-72
2023/10/28 07:23:20;;;;;;;;;1.00;1.00;;;;;13.91;70.03;99110.66;5060593;28;45441;-71
2023/10/28 07:25:46;;;;;;;;;2.75;1.00;;;;;13.91;69.73;99122.97;5059860;28;45416;-72
2023/10/28 07:28:14;;;;;;;;;2.00;2.00;;;;;13.94;69.76;99126.22;5028787;28;45296;-75
2023/10/28 07:30:51;;;;;;;;;1.00;0.00;;;;;13.97;69.80;99128.66;5039279;28;47098;-75
2023/10/28 07:33:20;;;;;;;;;2.50;1.00;;;;;13.98;69.98;99129.50;5041189;28;45345;-70
2023/10/28 07:35:50;;;;;;;;;3.00;1.00;;;;;13.99;69.79;99125.94;5041603;28;45441;-75
2023/10/28 07:38:16;;;;;;;;;2.50;1.00;;;;;14.02;69.71;99139.72;5057599;28;45598;-69
2023/10/28 07:40:42;;;;;;;;;3.00;1.00;;;;;14.05;69.88;99149.19;5028030;28;47466;-69
2023/10/28 07:43:10;;;;;;;;;3.00;0.00;;;;;14.04;69.66;99148.34;5045706;28;45458;-69
2023/10/28 07:45:35;;;;;;;;;3.00;2.00;;;;;14.05;69.04;99154.44;5067342;27;45477;-70
2023/10/28 07:48:00;;;;;;;;;2.50;1.00;;;;;14.07;69.33;99156.97;5028953;28;45681;-71
2023/10/28 07:50:26;;;;;;;;;3.00;1.50;;;;;14.09;69.54;99157.72;5045713;28;54057;-69
2023/10/28 07:52:51;;;;;;;;;2.00;1.00;;;;;14.13;69.60;99161.81;5045705;28;45394;-71
2023/10/28 07:55:16;;;;;;;;;2.00;0.50;;;;;14.15;69.27;99152.06;5060775;28;68487;-78
2023/10/28 07:57:43;;;;;;;;;1.50;0.25;;;;;14.15;69.62;99163.41;5044112;28;45297;-71
2023/10/28 08:00:11;;;;;;;;;1.25;1.00;;;;;14.19;69.24;99157.00;5048541;28;49745;-70
2023/10/28 08:02:43;;;;;;;;;0.75;0.50;;;;;14.22;69.16;99159.41;5026004;28;45754;-70
2023/10/28 08:05:10;;;;;;;;;2.00;0.00;;;;;14.26;69.39;99170.59;5044514;28;45502;-70
2023/10/28 08:07:36;;;;;;;;;4.00;1.00;;;;;14.30;68.89;99168.59;5044221;28;45316;-70
2023/10/28 08:10:01;;;;;;;;;1.75;0.00;;;;;14.29;69.01;99166.88;5038610;28;45503;-70
2023/10/28 08:12:27;;;;;;;;;1.00;1.00;;;;;14.32;69.04;99174.59;5061519;28;55191;-71
2023/10/28 08:14:52;;;;;;;;;0.00;0.00;;;;;14.33;69.29;99179.75;5043553;28;53067;-70
2023/10/28 08:17:17;;;;;;;;;0.00;0.00;;;;;14.34;68.87;99178.81;5043958;28;45300;-76
2023/10/28 08:19:43;;;;;;;;;2.00;2.00;;;;;14.35;69.08;99174.38;5044786;28;62208;-70
2023/10/28 08:22:08;;;;;;;;;1.25;1.25;;;;;14.37;68.63;99180.38;5043175;28;45271;-70
2023/10/28 08:24:33;;;;;;;;;1.00;1.00;;;;;14.38;68.82;99179.44;5024563;28;48255;-70
2023/10/28 08:26:59;;;;;;;;;3.25;1.50;;;;;14.43;68.90;99174.72;5061008;28;72852;-70
2023/10/28 08:29:24;;;;;;;;;2.00;1.75;;;;;14.46;69.04;99171.84;5043225;28;46694;-70
2023/10/28 08:31:50;;;;;;;;;2.50;1.00;;;;;14.50;69.14;99175.13;5025264;28;45390;-71
2023/10/28 08:34:15;;;;;;;;;3.50;1.75;;;;;14.53;68.58;99167.84;5047654;28;45456;-70
2023/10/28 08:36:43;;;;;;;;;3.75;2.00;;;;;14.56;68.89;99175.53;5041580;28;63316;-77
2023/10/28 08:39:09;;;;;;;;;3.50;0.50;;;;;14.56;68.53;99169.44;5026489;28;48081;-63
2023/10/28 08:41:35;;;;;;;;;1.50;1.00;;;;;14.57;68.45;99165.84;5060605;28;45308;-63
2023/10/28 08:44:05;;;;;;;;;3.25;1.75;;;;;14.57;68.51;99166.72;5063962;28;45301;-63
2023/10/28 08:46:31;;;;;;;;;2.50;1.00;;;;;14.57;68.80;99150.91;5026503;28;45483;-63
2023/10/28 08:48:58;;;;;;;;;2.50;1.00;;;;;14.58;68.24;99149.16;5055556;28;47353;-63
2023/10/28 08:51:24;;;;;;;;;3.75;2.50;;;;;14.56;68.77;99148.38;5046928;28;45501;-63
2023/10/28 08:53:55;;;;;;;;;2.50;1.00;;;;;14.57;68.21;99144.78;5056464;28;45498;-63
2023/10/28 08:56:24;;;;;;;;;1.50;1.50;;;;;14.59;68.80;99145.59;5088656;27;45231;-63
2023/10/28 08:58:50;;;;;;;;;2.00;2.00;;;;;14.66;68.82;99141.56;5060421;28;45483;-63
2023/10/28 09:01:17;;;;;;;;;2.00;1.00;;;;;14.73;68.50;99132.28;5035409;28;45645;-62
2023/10/28 09:03:43;;;;;;;;;3.00;3.00;;;;;14.79;68.56;99120.47;5065331;28;45511;-62
2023/10/28 09:06:09;;;;;;;;;1.00;1.00;;;;;14.85;68.43;99112.13;5049219;28;45571;-62
2023/10/28 09:08:34;;;;;;;;;5.75;3.00;;;;;14.90;68.04;99117.91;5068931;28;45216;-63
2023/10/28 09:11:00;;;;;;;;;2.50;0.75;;;;;14.92;68.16;99110.75;5062768;28;45241;-63
2023/10/28 09:13:26;;;;;;;;;2.75;1.00;;;;;14.97;67.33;99119.16;5075109;28;45207;-63
2023/10/28 09:15:52;;;;;;;;;21.75;15.75;;;;;15.01;67.17;99109.25;5072382;28;66276;-62
2023/10/28 09:18:17;;;;;;;;;27.00;23.00;;;;;15.03;67.94;99114.41;5059835;28;46419;-61
2023/10/28 09:20:42;;;;;;;;;1.00;1.00;;;;;15.07;67.46;99114.09;5054914;28;45476;-62
2023/10/28 09:23:08;;;;;;;;;3.50;1.50;;;;;15.09;66.89;99114.00;5060366;28;67277;-62
2023/10/28 09:25:36;;;;;;;;;1.00;1.00;;;;;15.08;67.69;99107.03;5065038;28;45332;-62
2023/10/28 09:28:07;;;;;;;;;2.75;0.00;;;;;15.11;67.41;99109.44;5071614;28;46282;-62
2023/10/28 09:30:43;;;;;;;;;3.25;2.00;;;;;15.14;67.22;99107.44;5067985;28;45462;-62
2023/10/28 09:33:09;;;;;;;;;2.50;1.00;;;;;15.17;67.02;99116.91;5070117;28;45517;-63
2023/10/28 09:35:36;;;;;;;;;17.25;13.50;;;;;15.18;67.24;99115.97;5051637;28;45485;-62
2023/10/28 09:38:03;;;;;;;;;3.75;2.75;;;;;15.20;66.80;99116.69;5045711;28;45535;-63
2023/10/28 09:40:28;;;;;;;;;3.50;1.00;;;;;15.18;66.71;99121.22;5063970;28;45493;-62
2023/10/28 09:42:54;;;;;;;;;3.00;1.00;;;;;15.14;66.55;99112.69;5032578;28;71198;-62
2023/10/28 09:45:19;;;;;;;;;1.75;1.25;;;;;15.16;66.83;99108.16;5065947;28;74148;-62
2023/10/28 09:48:14;;;;;;;;;2.00;1.00;;;;;15.18;66.63;99108.88;5055457;28;47104;-63
2023/10/28 09:50:50;;;;;;;;;2.00;1.25;;;;;15.20;66.86;99095.59;5071306;28;45149;-63
2023/10/28 09:53:17;;;;;;;;;2.00;2.00;;;;;15.29;66.63;99104.63;5047272;28;45277;-61
2023/10/28 09:55:44;;;;;;;;;3.50;2.00;;;;;15.36;66.66;99093.53;5053997;28;45477;-61
2023/10/28 09:58:17;;;;;;;;;2.00;1.00;;;;;15.40;66.05;99090.66;5075324;28;46361;-61
2023/10/28 10:00:46;;;;;;;;;2.25;0.50;;;;;15.43;66.05;99085.19;5055790;28;45446;-61
2023/10/28 10:03:25;;;;;;;;;3.00;1.50;;;;;15.43;65.98;99079.91;5032451;28;45530;-62
2023/10/28 10:05:53;;;;;;;;;3.75;1.00;;;;;15.46;65.98;99085.78;5044287;28;45540;-62
2023/10/28 10:08:22;;;;;;;;;1.25;1.00;;;;;15.52;66.20;99087.97;5050410;28;45545;-62
2023/10/28 10:10:49;;;;;;;;;2.75;1.25;;;;;15.58;66.24;99097.22;5062276;28;45494;-62
2023/10/28 10:13:15;;;;;;;;;2.00;2.00;;;;;15.66;66.06;99088.75;5046634;28;45202;-62
2023/10/28 10:15:44;;;;;;;;;2.25;1.75;;;;;15.72;65.46;99097.06;5062316;28;45276;-62
2023/10/28 10:18:21;;;;;;;;;2.00;0.75;;;;;15.78;65.34;99108.13;5052742;28;47130;-62
2023/10/28 10:20:46;;;;;;;;;1.00;1.00;;;;;15.79;65.10;99100.09;5033276;28;45368;-62
2023/10/28 10:23:13;;;;;;;;;3.25;1.50;;;;;15.82;64.36;99113.03;5071346;28;45494;-62
2023/10/28 10:25:43;;;;;;;;;2.00;1.00;;;;;15.83;64.33;99127.94;5060278;28;45352;-62
2023/10/28 10:28:19;;;;;;;;;3.75;1.75;;;;;15.90;65.09;99138.84;5058908;28;46248;-62
2023/10/28 10:30:45;;;;;;;;;2.00;0.00;;;;;15.92;64.18;99144.88;5058994;28;45335;-63
2023/10/28 10:33:11;;;;;;;;;5.50;0.50;;;;;15.84;63.84;99157.78;5042195;28;45351;-63
2023/10/28 10:35:36;;;;;;;;;0.00;0.00;;;;;15.78;64.32;99156.44;5024323;28;45407;-64
2023/10/28 10:38:11;;;;;;;;;2.25;1.00;;;;;15.70;63.42;99172.78;5059570;28;46419;-62
2023/10/28 10:40:52;;;;;;;;;2.25;1.00;;;;;15.61;63.61;99188.44;5042319;28;45750;-64
2023/10/28 10:43:19;;;;;;;;;2.00;2.00;;;;;15.54;64.61;99180.13;5059994;28;45430;-63
2023/10/28 10:45:45;;;;;;;;;3.75;2.00;;;;;15.51;64.69;99183.84;5059990;28;45423;-63
2023/10/28 10:48:11;;;;;;;;;2.00;2.00;;;;;15.50;64.54;99171.59;5056883;28;46609;-63
2023/10/28 10:50:37;;;;;;;;;3.00;1.00;;;;;15.51;64.57;99167.16;5065584;28;60077;-63
2023/10/28 10:53:05;;;;;;;;;5.00;3.00;;;;;15.50;64.91;99162.88;5067697;28;45971;-62
2023/10/28 10:55:31;;;;;;;;;1.00;1.00;;;;;15.52;64.55;99147.78;5042114;28;45582;-63
2023/10/28 10:57:57;;;;;;;;;1.25;1.00;;;;;15.50;64.09;99132.06;5056319;27;45261;-63
2023/10/28 11:00:23;;;;;;;;;2.50;2.00;;;;;15.55;64.64;99122.03;5033791;28;45939;-63
2023/10/28 11:02:49;;;;;;;;;2.25;1.00;;;;;15.60;64.11;99124.34;5059641;28;45415;-63
2023/10/28 11:05:16;;;;;;;;;2.50;1.50;;;;;15.65;64.66;99118.69;5074613;28;45367;-63
2023/10/28 11:07:42;;;;;;;;;2.75;1.00;;;;;15.68;64.04;99113.22;5059585;28;46575;-63
2023/10/28 11:10:08;;;;;;;;;2.75;1.00;;;;;15.70;63.89;99119.19;5059526;28;45825;-62
2023/10/28 11:12:34;;;;;;;;;3.50;1.50;;;;;15.71;63.65;99112.97;5042229;28;45374;-63
2023/10/28 11:15:00;;;;;;;;;2.25;2.00;;;;;15.74;63.48;99123.28;5041690;28;45537;-63
2023/10/28 11:17:25;;;;;;;;;4.50;1.50;;;;;15.76;63.71;99121.44;5059615;28;58296;-62
2023/10/28 11:19:51;;;;;;;;;1.50;1.50;;;;;15.75;63.91;99125.00;5055954;28;45474;-63
2023/10/28 11:22:17;;;;;;;;;2.50;1.50;;;;;15.74;63.84;99111.00;5063554;28;45208;-63
2023/10/28 11:24:43;;;;;;;;;4.75;2.00;;;;;15.81;64.03;99121.06;5045256;28;45290;-62
2023/10/28 11:27:08;;;;;;;;;1.75;1.75;;;;;15.85;62.00;99115.47;5062284;28;45620;-63
2023/10/28 11:29:38;;;;;;;;;1.50;0.75;;;;;15.85;61.81;99114.63;5047148;28;45486;-63
2023/10/28 11:32:07;;;;;;;;;1.00;1.00;;;;;15.90;63.14;99123.88;5068400;28;45256;-64